createdAt,value
2019-02-23T00:01:48.034Z,103573.55
2019-02-23T00:04:18.236Z,103572.16
2019-02-23T00:06:48.690Z,103571.66
2019-02-23T00:09:19.371Z,103570.38
2019-02-23T00:12:04.578Z,103570.03
2019-02-23T00:14:49.800Z,103567.70
2019-02-23T00:17:22.174Z,103563.34
2019-02-23T00:20:24.365Z,103565.55
2019-02-23T00:22:55.984Z,103565.95
2019-02-23T00:25:26.191Z,103568.33
2019-02-23T00:27:57.668Z,103570.52
2019-02-23T00:30:35.764Z,103571.89
2019-02-23T00:33:06.146Z,103569.55
2019-02-23T00:35:36.465Z,103569.17
2019-02-23T00:38:07.729Z,103566.46
2019-02-23T00:40:37.922Z,103578.08
2019-02-23T00:43:08.112Z,103574.46
2019-02-23T00:45:38.358Z,103575.41
2019-02-23T00:48:08.807Z,103572.28
2019-02-23T00:50:59.988Z,103574.03
2019-02-23T00:53:51.013Z,103580.35
2019-02-23T00:56:21.218Z,103586.23
2019-02-23T00:58:51.400Z,103583.55
2019-02-23T01:01:21.620Z,103582.25
2019-02-23T01:03:51.809Z,103577.74
2019-02-23T01:06:48.617Z,103582.70
2019-02-23T01:09:18.818Z,103575.05
2019-02-23T01:11:49.013Z,103579.55
2019-02-23T01:14:19.209Z,103575.52
2019-02-23T01:16:55.649Z,103570.61
2019-02-23T01:19:25.853Z,103570.14
2019-02-23T01:21:56.059Z,103573.73
2019-02-23T01:24:26.247Z,103577.33
2019-02-23T01:26:57.389Z,103568.80
2019-02-23T01:29:39.632Z,103573.30
2019-02-23T01:32:17.657Z,103568.37
2019-02-23T01:35:06.722Z,103569.26
2019-02-23T01:37:36.932Z,103564.35
2019-02-23T01:40:09.149Z,103567.02
2019-02-23T01:42:39.365Z,103567.93
2019-02-23T01:45:09.828Z,103570.16
2019-02-23T01:47:50.446Z,103565.23
2019-02-23T01:50:26.664Z,103559.84
2019-02-23T01:52:58.780Z,103559.41
2019-02-23T01:55:32.031Z,103557.59
2019-02-23T01:58:02.260Z,103562.53
2019-02-23T02:00:32.899Z,103555.37
2019-02-23T02:03:03.179Z,103547.78
2019-02-23T02:05:33.440Z,103541.08
2019-02-23T02:08:03.720Z,103543.75
2019-02-23T02:10:33.918Z,103540.19
2019-02-23T02:13:14.129Z,103539.30
2019-02-23T02:15:44.373Z,103543.73
2019-02-23T02:18:14.561Z,103533.47
2019-02-23T02:20:46.670Z,103533.03
2019-02-23T02:23:16.871Z,103537.05
2019-02-23T02:25:47.046Z,103533.91
2019-02-23T02:28:18.323Z,103540.63
2019-02-23T02:30:54.286Z,103537.04
2019-02-23T02:33:24.614Z,103541.97
2019-02-23T02:36:07.845Z,103538.39
2019-02-23T02:38:58.678Z,103532.57
2019-02-23T02:41:28.855Z,103543.75
2019-02-23T02:43:59.058Z,103533.90
2019-02-23T02:46:29.240Z,103538.36
2019-02-23T02:49:02.122Z,103531.22
2019-02-23T02:51:36.533Z,103532.56
2019-02-23T02:54:06.733Z,103528.53
2019-02-23T02:56:36.927Z,103529.89
2019-02-23T02:59:07.117Z,103533.89
2019-02-23T03:01:37.336Z,103533.42
2019-02-23T03:04:09.473Z,103537.05
2019-02-23T03:06:39.681Z,103537.86
2019-02-23T03:09:28.272Z,103539.24
2019-02-23T03:11:58.438Z,103538.78
2019-02-23T03:14:28.663Z,103536.06
2019-02-23T03:16:58.863Z,103536.09
2019-02-23T03:19:29.118Z,103540.58
2019-02-23T03:21:59.307Z,103532.94
2019-02-23T03:24:38.367Z,103526.20
2019-02-23T03:27:09.756Z,103527.92
2019-02-23T03:29:46.714Z,103524.34
2019-02-23T03:32:16.933Z,103529.71
2019-02-23T03:34:49.107Z,103531.94
2019-02-23T03:37:19.314Z,103531.03
2019-02-23T03:39:49.489Z,103525.23
2019-02-23T03:42:19.774Z,103524.71
2019-02-23T03:44:49.953Z,103531.45
2019-02-23T03:47:20.167Z,103530.56
2019-02-23T03:49:50.345Z,103538.95
2019-02-23T03:52:27.444Z,103538.13
2019-02-23T03:55:03.535Z,103533.16
2019-02-23T03:57:33.725Z,103535.81
2019-02-23T04:00:13.824Z,103533.11
2019-02-23T04:02:44.021Z,103530.89
2019-02-23T04:05:14.222Z,103537.12
2019-02-23T04:07:44.442Z,103540.64
2019-02-23T04:10:34.226Z,103541.05
2019-02-23T04:13:27.320Z,103546.40
2019-02-23T04:15:58.531Z,103546.40
2019-02-23T04:18:28.726Z,103547.16
2019-02-23T04:21:01.998Z,103553.45
2019-02-23T04:23:31.772Z,103555.19
2019-02-23T04:26:01.962Z,103558.45
2019-02-23T04:28:39.851Z,103560.07
2019-02-23T04:31:10.048Z,103561.96
2019-02-23T04:33:40.309Z,103566.84
2019-02-23T04:36:15.621Z,103566.29
2019-02-23T04:38:45.905Z,103568.97
2019-02-23T04:41:23.845Z,103571.16
2019-02-23T04:43:54.066Z,103573.03
2019-02-23T04:46:24.279Z,103571.33
2019-02-23T04:48:54.477Z,103573.14
2019-02-23T04:51:24.688Z,103581.22
2019-02-23T04:53:54.858Z,103582.40
2019-02-23T04:56:25.069Z,103578.72
2019-02-23T04:58:55.250Z,103583.06
2019-02-23T05:01:25.439Z,103577.27
2019-02-23T05:03:55.631Z,103577.56
2019-02-23T05:09:49.959Z,103586.53
2019-02-23T05:12:20.172Z,103585.59
2019-02-23T05:15:02.793Z,103581.09
2019-02-23T05:18:00.301Z,103577.95
2019-02-23T05:20:44.852Z,103587.31
2019-02-23T05:23:21.650Z,103580.10
2019-02-23T05:25:51.861Z,103593.45
2019-02-23T05:28:33.387Z,103581.92
2019-02-23T05:31:28.523Z,103587.05
2019-02-23T05:33:58.702Z,103582.44
2019-02-23T05:36:28.899Z,103593.02
2019-02-23T05:39:10.613Z,103599.75
2019-02-23T05:41:40.812Z,103589.13
2019-02-23T05:44:11.076Z,103602.29
2019-02-23T05:46:41.277Z,103598.46
2019-02-23T05:49:12.550Z,103602.71
2019-02-23T05:51:56.155Z,103609.55
2019-02-23T05:54:30.676Z,103607.73
2019-02-23T05:57:45.563Z,103606.95
2019-02-23T06:00:16.312Z,103610.65
2019-02-23T06:02:46.515Z,103619.05
2019-02-23T06:05:16.706Z,103618.72
2019-02-23T06:07:47.834Z,103626.98
2019-02-23T06:10:18.028Z,103629.38
2019-02-23T06:12:48.315Z,103628.67
2019-02-23T06:15:25.430Z,103633.58
2019-02-23T06:17:55.638Z,103635.89
2019-02-23T06:20:25.827Z,103640.76
2019-02-23T06:23:02.729Z,103634.72
2019-02-23T06:25:40.964Z,103642.16
2019-02-23T06:28:11.158Z,103635.63
2019-02-23T06:30:41.417Z,103637.56
2019-02-23T06:33:12.693Z,103645.80
2019-02-23T06:35:42.867Z,103647.19
2019-02-23T06:38:13.077Z,103648.45
2019-02-23T06:40:43.281Z,103642.94
2019-02-23T06:43:36.306Z,103644.59
2019-02-23T06:46:06.484Z,103644.92
2019-02-23T06:48:36.692Z,103644.83
2019-02-23T06:51:10.744Z,103644.66
2019-02-23T06:53:40.937Z,103644.75
2019-02-23T06:56:12.089Z,103638.38
2019-02-23T06:58:42.288Z,103641.54
2019-02-23T07:01:16.166Z,103649.55
2019-02-23T07:03:54.255Z,103646.23
2019-02-23T07:06:24.454Z,103650.89
2019-02-23T07:08:54.663Z,103640.56
2019-02-23T07:11:34.487Z,103644.51
2019-02-23T07:14:11.932Z,103646.00
2019-02-23T07:16:42.312Z,103645.58
2019-02-23T07:19:12.532Z,103648.80
2019-02-23T07:21:42.711Z,103657.47
2019-02-23T07:24:15.990Z,103645.88
2019-02-23T07:26:46.175Z,103648.41
2019-02-23T07:29:16.461Z,103651.66
2019-02-23T07:31:53.465Z,103643.58
2019-02-23T07:34:32.766Z,103646.86
2019-02-23T07:37:02.963Z,103646.51
2019-02-23T07:39:34.214Z,103649.98
2019-02-23T07:42:05.402Z,103651.23
2019-02-23T07:44:42.452Z,103656.05
2019-02-23T07:47:14.628Z,103637.53
2019-02-23T07:49:57.045Z,103636.88
2019-02-23T07:52:30.523Z,103632.32
2019-02-23T07:55:01.772Z,103620.93
2019-02-23T07:57:48.096Z,103628.16
2019-02-23T08:00:23.958Z,103620.23
2019-02-23T08:03:06.517Z,103624.16
2019-02-23T08:05:59.244Z,103626.91
2019-02-23T08:08:31.356Z,103626.02
2019-02-23T08:11:01.572Z,103633.12
2019-02-23T08:16:40.249Z,103623.40
2019-02-23T08:19:22.790Z,103633.25
2019-02-23T08:21:57.095Z,103629.69
2019-02-23T08:24:27.282Z,103629.23
2019-02-23T08:27:02.830Z,103626.95
2019-02-23T08:29:33.047Z,103631.45
2019-02-23T08:32:03.248Z,103635.66
2019-02-23T08:34:33.450Z,103639.00
2019-02-23T08:37:11.021Z,103634.53
2019-02-23T08:39:48.986Z,103644.42
2019-02-23T08:42:22.198Z,103647.57
2019-02-23T08:44:56.349Z,103637.17
2019-02-23T08:47:50.281Z,103637.19
2019-02-23T08:50:27.196Z,103640.27
2019-02-23T08:53:12.326Z,103639.73
2019-02-23T08:55:42.516Z,103636.27
2019-02-23T08:59:08.726Z,103639.74
2019-02-23T09:01:40.836Z,103642.86
2019-02-23T09:04:16.903Z,103633.30
2019-02-23T09:06:47.100Z,103634.97
2019-02-23T09:09:23.665Z,103637.98
2019-02-23T09:11:53.924Z,103635.89
2019-02-23T09:14:27.578Z,103624.77
2019-02-23T09:16:57.782Z,103625.15
2019-02-23T09:19:48.778Z,103632.24
2019-02-23T09:22:30.747Z,103627.77
2019-02-23T09:25:00.936Z,103620.64
2019-02-23T09:27:31.153Z,103626.31
2019-02-23T09:30:04.423Z,103617.78
2019-02-23T09:32:37.615Z,103626.11
2019-02-23T09:35:23.939Z,103635.23
2019-02-23T09:38:00.680Z,103635.58
2019-02-23T09:40:51.898Z,103631.98
2019-02-23T09:43:35.962Z,103646.69
2019-02-23T09:46:06.175Z,103648.03
2019-02-23T09:48:45.244Z,103646.22
2019-02-23T09:51:15.455Z,103637.39
2019-02-23T09:53:53.659Z,103622.78
2019-02-23T09:56:24.046Z,103612.93
2019-02-23T09:59:26.523Z,103607.00
2019-02-23T10:02:14.854Z,103604.34
2019-02-23T10:05:11.937Z,103602.70
2019-02-23T10:10:52.010Z,103605.39
2019-02-23T10:13:22.230Z,103598.45
2019-02-23T10:15:54.323Z,103594.19
2019-02-23T10:18:24.525Z,103600.02
2019-02-23T10:20:54.717Z,103589.25
2019-02-23T10:23:35.856Z,103588.89
2019-02-23T10:26:06.087Z,103592.47
2019-02-23T10:28:37.264Z,103582.11
2019-02-23T10:31:09.501Z,103590.89
2019-02-23T10:33:47.541Z,103592.23
2019-02-23T10:36:17.489Z,103583.63
2019-02-23T10:38:49.636Z,103593.85
2019-02-23T10:41:26.050Z,103595.10
2019-02-23T10:44:00.108Z,103586.16
2019-02-23T10:46:36.459Z,103583.30
2019-02-23T10:49:27.595Z,103579.72
2019-02-23T10:52:04.802Z,103580.55
2019-02-23T10:54:48.921Z,103573.64
2019-02-23T10:57:32.450Z,103568.42
2019-02-23T11:00:28.888Z,103574.47
2019-02-23T11:03:20.860Z,103565.84
2019-02-23T11:05:51.073Z,103564.88
2019-02-23T11:08:21.276Z,103558.17
2019-02-23T11:10:52.415Z,103550.38
2019-02-23T11:13:24.585Z,103548.98
2019-02-23T11:15:54.943Z,103555.39
2019-02-23T11:18:25.124Z,103542.22
2019-02-23T11:20:55.340Z,103530.97
2019-02-23T11:23:43.753Z,103523.73
2019-02-23T11:26:09.496Z,103518.47
2019-02-23T11:28:39.686Z,103514.71
2019-02-23T11:31:09.958Z,103504.44
2019-02-23T11:33:40.157Z,103505.61
2019-02-23T11:36:10.359Z,103505.36
2019-02-23T11:38:46.535Z,103511.64
2019-02-23T11:41:16.834Z,103500.58
2019-02-23T11:43:47.036Z,103497.29
2019-02-23T11:46:17.243Z,103494.64
2019-02-23T11:48:49.365Z,103494.77
2019-02-23T11:51:24.165Z,103498.48
2019-02-23T11:53:55.370Z,103488.97
2019-02-23T11:56:25.640Z,103481.95
2019-02-23T11:59:09.834Z,103491.86
2019-02-23T12:01:45.886Z,103488.66
2019-02-23T12:04:40.181Z,103488.20
2019-02-23T12:07:36.840Z,103487.03
2019-02-23T12:10:10.089Z,103492.03
2019-02-23T12:12:40.282Z,103487.31
2019-02-23T12:15:10.869Z,103480.59
2019-02-23T12:17:41.050Z,103488.00
2019-02-23T12:20:11.931Z,103486.43
2019-02-23T12:22:42.178Z,103489.42
2019-02-23T12:25:15.711Z,103486.92
2019-02-23T12:27:44.303Z,103484.22
2019-02-23T12:30:14.530Z,103479.70
2019-02-23T12:32:44.784Z,103488.52
2019-02-23T12:35:16.101Z,103492.77
2019-02-23T12:37:46.288Z,103487.28
2019-02-23T12:40:16.501Z,103485.81
2019-02-23T12:42:46.710Z,103476.84
2019-02-23T12:45:24.144Z,103480.05
2019-02-23T12:47:54.324Z,103465.05
2019-02-23T12:50:34.301Z,103469.63
2019-02-23T12:53:04.630Z,103467.98
2019-02-23T12:55:35.916Z,103456.93
2019-02-23T12:58:58.191Z,103454.61
2019-02-23T13:01:29.303Z,103449.64
2019-02-23T13:03:59.481Z,103436.99
2019-02-23T13:06:29.703Z,103441.13
2019-02-23T13:09:17.250Z,103437.86
2019-02-23T13:12:12.899Z,103441.30
2019-02-23T13:15:01.218Z,103434.16
2019-02-23T13:17:54.649Z,103434.69
2019-02-23T13:21:05.797Z,103437.11
2019-02-23T13:24:01.557Z,103437.47
2019-02-23T13:26:54.686Z,103427.92
2019-02-23T13:29:48.475Z,103433.84
2019-02-23T13:32:59.360Z,103433.28
2019-02-23T13:35:40.650Z,103428.82
2019-02-23T13:38:33.337Z,103433.75
2019-02-23T13:41:26.026Z,103430.47
2019-02-23T13:44:28.221Z,103426.52
2019-02-23T13:47:19.750Z,103428.53
2019-02-23T13:50:32.668Z,103424.29
2019-02-23T13:53:06.113Z,103423.56
2019-02-23T13:55:47.746Z,103419.30
2019-02-23T13:58:40.899Z,103415.28
2019-02-23T14:01:24.314Z,103420.78
2019-02-23T14:04:08.379Z,103411.26
2019-02-23T14:06:44.281Z,103412.75
2019-02-23T14:09:43.240Z,103411.80
2019-02-23T14:12:27.965Z,103410.45
2019-02-23T14:15:23.574Z,103408.98
2019-02-23T14:18:18.092Z,103410.38
2019-02-23T14:21:13.877Z,103409.81
2019-02-23T14:23:56.245Z,103408.74
2019-02-23T14:26:44.292Z,103405.04
2019-02-23T14:29:44.472Z,103406.77
2019-02-23T14:32:33.026Z,103396.92
2019-02-23T14:35:11.338Z,103394.54
2019-02-23T14:38:02.581Z,103404.96
2019-02-23T14:40:50.852Z,103400.91
2019-02-23T14:43:45.512Z,103402.05
2019-02-23T14:46:42.120Z,103411.56
2019-02-23T14:49:28.918Z,103408.08
2019-02-23T14:52:14.560Z,103404.47
2019-02-23T14:54:48.801Z,103399.84
2019-02-23T14:57:37.027Z,103408.58
2019-02-23T15:00:26.879Z,103402.60
2019-02-23T15:03:02.187Z,103404.95
2019-02-23T15:05:37.540Z,103388.72
2019-02-23T15:08:45.776Z,103394.48
2019-02-23T15:11:27.790Z,103380.77
2019-02-23T15:14:32.754Z,103388.48
2019-02-23T15:17:24.035Z,103381.38
2019-02-23T15:20:16.982Z,103382.78
2019-02-23T15:23:28.362Z,103392.22
2019-02-23T15:26:22.311Z,103389.94
2019-02-23T15:29:08.975Z,103379.92
2019-02-23T15:31:59.869Z,103391.88
2019-02-23T15:35:01.199Z,103395.39
2019-02-23T15:37:38.350Z,103394.19
2019-02-23T15:40:11.772Z,103391.55
2019-02-23T15:42:46.128Z,103392.63
2019-02-23T15:45:29.386Z,103398.03
2019-02-23T15:48:27.050Z,103393.01
2019-02-23T15:51:07.075Z,103395.44
2019-02-23T15:53:38.198Z,103395.16
2019-02-23T15:56:09.422Z,103396.00
2019-02-23T15:58:40.593Z,103395.50
2019-02-23T16:01:12.726Z,103396.50
2019-02-23T16:03:42.932Z,103386.53
2019-02-23T16:06:13.241Z,103399.50
2019-02-23T16:08:43.439Z,103394.91
2019-02-23T16:11:13.625Z,103396.50
2019-02-23T16:13:48.144Z,103392.80
2019-02-23T16:16:47.454Z,103389.39
2019-02-23T16:19:19.325Z,103383.98
2019-02-23T16:21:52.608Z,103388.95
2019-02-23T16:24:21.502Z,103383.47
2019-02-23T16:26:52.786Z,103385.67
2019-02-23T16:29:27.362Z,103389.67
2019-02-23T16:32:10.670Z,103390.61
2019-02-23T16:34:40.891Z,103394.73
2019-02-23T16:37:11.110Z,103402.09
2019-02-23T16:39:49.614Z,103398.13
2019-02-23T16:42:19.823Z,103402.98
2019-02-23T16:44:51.987Z,103403.99
2019-02-23T16:47:37.450Z,103406.30
2019-02-23T16:50:09.522Z,103405.64
2019-02-23T16:52:51.784Z,103405.39
2019-02-23T16:55:22.032Z,103404.38
2019-02-23T16:58:16.470Z,103406.95
2019-02-23T17:00:47.731Z,103407.47
2019-02-23T17:03:17.913Z,103412.66
2019-02-23T17:05:48.162Z,103413.06
2019-02-23T17:08:27.298Z,103414.75
2019-02-23T17:10:58.665Z,103409.87
2019-02-23T17:13:28.960Z,103411.75
2019-02-23T17:15:59.175Z,103418.87
2019-02-23T17:18:29.374Z,103416.95
2019-02-23T17:21:04.710Z,103417.58
2019-02-23T17:23:35.825Z,103415.56
2019-02-23T17:26:06.060Z,103421.71
2019-02-23T17:28:37.171Z,103419.42
2019-02-23T17:31:07.445Z,103423.14
2019-02-23T17:33:38.652Z,103424.95
2019-02-23T17:36:15.274Z,103421.47
2019-02-23T17:38:57.516Z,103422.45
2019-02-23T17:41:27.890Z,103423.80
2019-02-23T17:44:08.517Z,103431.31
2019-02-23T17:46:38.794Z,103430.37
2019-02-23T17:49:08.982Z,103434.24
2019-02-23T17:51:39.190Z,103427.09
2019-02-23T17:54:33.603Z,103422.87
2019-02-23T17:57:04.767Z,103425.07
2019-02-23T17:59:38.010Z,103421.69
2019-02-23T18:02:09.226Z,103418.00
2019-02-23T18:04:43.442Z,103424.30
2019-02-23T18:07:14.660Z,103423.97
2019-02-23T18:09:59.077Z,103435.11
2019-02-23T18:12:37.646Z,103428.84
2019-02-23T18:15:09.473Z,103425.67
2019-02-23T18:17:39.870Z,103431.09
2019-02-23T18:20:13.821Z,103423.16
2019-02-23T18:22:44.038Z,103428.18
2019-02-23T18:25:31.429Z,103426.47
2019-02-23T18:28:01.639Z,103430.46
2019-02-23T18:30:32.858Z,103427.92
2019-02-23T18:33:03.073Z,103428.45
2019-02-23T18:35:35.233Z,103430.37
2019-02-23T18:38:09.644Z,103435.34
2019-02-23T18:40:39.886Z,103434.85
2019-02-23T18:43:12.040Z,103431.58
2019-02-23T18:45:47.792Z,103440.16
2019-02-23T18:48:18.145Z,103437.46
2019-02-23T18:50:48.327Z,103439.81
2019-02-23T18:53:19.509Z,103441.18
2019-02-23T18:55:55.045Z,103437.63
2019-02-23T18:58:27.385Z,103442.09
2019-02-23T19:01:02.735Z,103438.45
2019-02-23T19:03:48.293Z,103445.78
2019-02-23T19:06:18.464Z,103449.41
2019-02-23T19:08:48.673Z,103442.62
2019-02-23T19:11:53.599Z,103443.68
2019-02-23T19:14:32.048Z,103439.98
2019-02-23T19:17:06.498Z,103439.66
2019-02-23T19:19:36.789Z,103445.12
2019-02-23T19:22:28.436Z,103437.00
2019-02-23T19:24:58.628Z,103445.13
2019-02-23T19:27:28.820Z,103451.42
2019-02-23T19:30:06.854Z,103448.41
2019-02-23T19:32:39.270Z,103448.81
2019-02-23T19:35:24.307Z,103446.16
2019-02-23T19:37:55.496Z,103440.37
2019-02-23T19:40:27.670Z,103437.66
2019-02-23T19:43:08.036Z,103439.02
2019-02-23T19:45:44.502Z,103432.34
2019-02-23T19:48:14.760Z,103433.75
2019-02-23T19:51:00.277Z,103439.50
2019-02-23T19:53:30.498Z,103439.51
2019-02-23T19:56:00.658Z,103439.08
2019-02-23T19:58:57.189Z,103439.95
2019-02-23T20:01:28.331Z,103444.89
2019-02-23T20:03:58.538Z,103448.91
2019-02-23T20:06:28.736Z,103450.25
2019-02-23T20:08:58.926Z,103442.23
2019-02-23T20:11:40.100Z,103458.31
2019-02-23T20:14:10.307Z,103450.25
2019-02-23T20:16:42.444Z,103456.06
2019-02-23T20:19:12.652Z,103455.20
2019-02-23T20:21:42.864Z,103452.98
2019-02-23T20:24:13.062Z,103452.98
2019-02-23T20:26:55.908Z,103446.26
2019-02-23T20:29:41.337Z,103456.99
2019-02-23T20:32:30.006Z,103454.75
2019-02-23T20:35:06.953Z,103456.56
2019-02-23T20:37:47.379Z,103452.97
2019-02-23T20:40:17.577Z,103456.98
2019-02-23T20:42:47.753Z,103454.73
2019-02-23T20:45:17.970Z,103456.51
2019-02-23T20:47:48.234Z,103449.36
2019-02-23T20:50:26.246Z,103451.16
2019-02-23T20:53:02.738Z,103453.83
2019-02-23T20:55:32.944Z,103450.25
2019-02-23T20:58:25.346Z,103442.14
2019-02-23T21:01:19.938Z,103439.05
2019-02-23T21:03:50.299Z,103439.05
2019-02-23T21:06:27.764Z,103437.27
2019-02-23T21:09:08.145Z,103435.47
2019-02-23T21:11:40.097Z,103435.02
2019-02-23T21:14:17.317Z,103435.08
2019-02-23T21:16:47.768Z,103435.00
2019-02-23T21:19:18.009Z,103434.62
2019-02-23T21:21:48.197Z,103431.93
2019-02-23T21:24:18.397Z,103435.01
2019-02-23T21:26:48.589Z,103435.02
2019-02-23T21:29:18.775Z,103425.64
2019-02-23T21:31:49.103Z,103420.33
2019-02-23T21:34:19.273Z,103423.47
2019-02-23T21:37:01.841Z,103423.02
2019-02-23T21:39:32.056Z,103421.23
2019-02-23T21:42:02.249Z,103421.67
2019-02-23T21:45:06.781Z,103422.57
2019-02-23T21:47:44.573Z,103426.14
2019-02-23T21:50:15.108Z,103420.79
2019-02-23T21:52:55.945Z,103425.27
2019-02-23T21:55:27.943Z,103413.19
2019-02-23T21:57:58.132Z,103421.68
2019-02-23T22:00:29.138Z,103418.12
2019-02-23T22:03:04.745Z,103411.41
2019-02-23T22:05:39.539Z,103410.51
2019-02-23T22:08:09.949Z,103421.69
2019-02-23T22:10:40.219Z,103422.14
2019-02-23T22:13:11.304Z,103418.10
2019-02-23T22:16:00.654Z,103418.55
2019-02-23T22:18:49.487Z,103417.64
2019-02-23T22:21:19.669Z,103422.11
2019-02-23T22:24:12.967Z,103417.21
2019-02-23T22:27:00.520Z,103414.52
2019-02-23T22:29:31.613Z,103417.21
2019-02-23T22:32:04.985Z,103426.11
2019-02-23T22:34:35.158Z,103428.80
2019-02-23T22:37:33.599Z,103422.92
2019-02-23T22:40:04.706Z,103415.35
2019-02-23T22:42:34.925Z,103410.41
2019-02-23T22:45:07.233Z,103408.16
2019-02-23T22:47:37.425Z,103408.66
2019-02-23T22:50:08.682Z,103411.34
2019-02-23T22:52:51.104Z,103404.66
2019-02-23T22:55:21.280Z,103414.91
2019-02-23T22:57:51.495Z,103417.14
2019-02-23T23:00:34.926Z,103422.06
2019-02-23T23:03:06.725Z,103425.69
2019-02-23T23:05:42.598Z,103418.91
2019-02-23T23:08:13.061Z,103426.02
2019-02-23T23:10:44.168Z,103420.27
2019-02-23T23:13:14.356Z,103418.94
2019-02-23T23:15:44.553Z,103407.83
2019-02-23T23:18:32.848Z,103406.48
2019-02-23T23:21:03.022Z,103406.02
2019-02-23T23:23:33.229Z,103414.47
2019-02-23T23:26:08.964Z,103415.77
2019-02-23T23:28:39.154Z,103413.56
2019-02-23T23:31:09.337Z,103414.83
2019-02-23T23:34:13.971Z,103409.94
2019-02-23T23:36:44.172Z,103414.89
2019-02-23T23:39:33.333Z,103417.11
2019-02-23T23:42:10.330Z,103411.33
2019-02-23T23:44:46.759Z,103410.45
2019-02-23T23:47:16.960Z,103408.67
2019-02-23T23:49:47.156Z,103402.02
2019-02-23T23:52:17.331Z,103407.39
2019-02-23T23:55:25.505Z,103407.83
2019-02-23T23:58:13.405Z,103412.73
